Time;durP1;ratioP1;P1;durP2;ratioP2;P2;SDS_P1;SDS_P2;PMS_P1;PMS_P2;Temp;Humidity;BMP_temperature;BMP_pressure;BME280_temperature;BME280_humidity;BME280_pressure;Samples;Min_cycle;Max_cycle;Signal;HPM_P1;HPM_P2
2023/02/22 00:34:05;;;;;;;;;;;;;;;;;;4844634;28;19971;-71
2023/02/22 00:36:31;;;;;;;;;;;;;;;;;;5036095;28;19912;-71
2023/02/22 00:38:57;;;;;;;;;;;;;;;;;;5036053;28;20003;-71
2023/02/22 00:46:52;;;;;;;;;;;;;;;;;;5053938;28;20088;-72
2023/02/22 00:49:18;;;;;;;;;;;;;;;;;;5053612;28;20003;-71
2023/02/22 00:51:44;;;;;;;;;;;;;;;;;;5035959;28;19924;-71
2023/02/22 00:54:10;;;;;;;;;;;;;;;;;;5035977;28;20012;-71
2023/02/22 00:56:36;;;;;;;;;;;;;;;;;;5035645;28;20019;-71
2023/02/22 00:59:02;;;;;;;;;;;;;;;;;;5053847;28;20353;-71
2023/02/22 01:01:28;;;;;;;;;;;;;;;;;;5035946;28;20327;-71
2023/02/22 01:03:54;;;;;;;;;;;;;;;;;;5035437;28;20288;-71
2023/02/22 01:06:21;;;;;;;;;;;;;;;;;;5053738;28;19951;-71
2023/02/22 01:08:47;;;;;;;;;;;;;;;;;;5053319;28;19909;-71
2023/02/22 01:11:14;;;;;;;;;;;;;;;;;;5053525;28;19928;-71
2023/02/22 01:13:40;;;;;;;;;;;;;;;;;;5053581;28;19916;-71
2023/02/22 01:16:09;;;;;;;;;;;;;;;;;;5053169;28;20007;-71
2023/02/22 01:18:34;;;;;;;;;;;;;;;;;;5053453;28;19923;-71
2023/02/22 01:21:01;;;;;;;;;;;;;;;;;;5035595;28;19909;-71
2023/02/22 01:23:27;;;;;;;;;;;;;;;;;;5035328;28;19909;-71
2023/02/22 01:25:53;;;;;;;;;;;;;;;;;;5053518;28;20289;-71
2023/02/22 01:28:21;;;;;;;;;;;;;;;;;;5053519;28;20288;-71
2023/02/22 01:30:47;;;;;;;;;;;;;;;;;;5035092;28;19955;-71
2023/02/22 01:33:14;;;;;;;;;;;;;;;;;;5054628;28;19921;-71
2023/02/22 01:35:40;;;;;;;;;;;;;;;;;;5039636;28;20376;-71
2023/02/22 01:38:07;;;;;;;;;;;;;;;;;;5057113;28;19912;-71
2023/02/22 01:40:33;;;;;;;;;;;;;;;;;;5057338;28;19958;-71
2023/02/22 01:42:59;;;;;;;;;;;;;;;;;;5057269;28;19909;-71
2023/02/22 01:45:26;;;;;;;;;;;;;;;;;;5056907;28;19909;-71
2023/02/22 01:47:51;;;;;;;;;;;;;;;;;;5039492;28;19908;-71
2023/02/22 01:50:17;;;;;;;;;;;;;;;;;;5057307;28;19909;-71
2023/02/22 02:14:41;;;;;;;;;;;;;;;;;;5057251;28;19920;-71
2023/02/22 02:17:08;;;;;;;;;;;;;;;;;;5056979;28;19992;-71
2023/02/22 02:19:35;;;;;;;;;;;;;;;;;;5056204;28;19959;-71
2023/02/22 02:22:00;;;;;;;;;;;;;;;;;;5056595;28;19909;-71
2023/02/22 02:24:27;;;;;;;;;;;;;;;;;;5057130;28;20306;-71
2023/02/22 02:26:53;;;;;;;;;;;;;;;;;;5038548;28;19932;-72
2023/02/22 02:29:19;;;;;;;;;;;;;;;;;;5038574;28;19908;-72
2023/02/22 02:31:45;;;;;;;;;;;;;;;;;;5056533;28;20387;-72
2023/02/22 02:34:11;;;;;;;;;;;;;;;;;;5055831;28;20345;-71
2023/02/22 02:36:36;;;;;;;;;;;;;;;;;;5038468;28;20008;-71
2023/02/22 02:39:02;;;;;;;;;;;;;;;;;;5056375;28;20380;-72
2023/02/22 02:41:28;;;;;;;;;;;;;;;;;;5056044;28;20293;-70
2023/02/22 02:43:54;;;;;;;;;;;;;;;;;;5055708;28;19917;-72
2023/02/22 02:46:20;;;;;;;;;;;;;;;;;;5056129;28;19916;-72
2023/02/22 02:48:46;;;;;;;;;;;;;;;;;;5055774;28;19913;-70
2023/02/22 02:51:13;;;;;;;;;;;;;;;;;;5055918;28;19962;-70
2023/02/22 02:53:39;;;;;;;;;;;;;;;;;;5056093;28;20319;-70
2023/02/22 02:56:04;;;;;;;;;;;;;;;;;;5055510;28;19909;-70
2023/02/22 02:58:30;;;;;;;;;;;;;;;;;;5037981;28;20273;-71
2023/02/22 03:00:56;;;;;;;;;;;;;;;;;;5055904;28;19966;-70
2023/02/22 03:03:22;;;;;;;;;;;;;;;;;;5037647;28;19912;-70
2023/02/22 03:05:48;;;;;;;;;;;;;;;;;;5037829;28;19909;-71
2023/02/22 03:08:14;;;;;;;;;;;;;;;;;;5037360;28;19958;-70
2023/02/22 03:10:40;;;;;;;;;;;;;;;;;;5037710;28;19909;-71
2023/02/22 03:13:06;;;;;;;;;;;;;;;;;;5055564;28;19952;-70
2023/02/22 03:15:32;;;;;;;;;;;;;;;;;;5055431;28;20502;-70
2023/02/22 03:17:58;;;;;;;;;;;;;;;;;;5055584;28;20353;-70
2023/02/22 03:20:30;;;;;;;;;;;;;;;;;;5055493;28;19971;-70
2023/02/22 03:22:56;;;;;;;;;;;;;;;;;;5055171;28;19909;-70
2023/02/22 03:25:22;;;;;;;;;;;;;;;;;;5055411;28;20263;-70
2023/02/22 03:27:48;;;;;;;;;;;;;;;;;;5055328;28;19909;-71
2023/02/22 03:30:14;;;;;;;;;;;;;;;;;;5037082;28;19917;-71
2023/02/22 03:32:40;;;;;;;;;;;;;;;;;;5054947;28;19928;-72
2023/02/22 03:35:06;;;;;;;;;;;;;;;;;;5037205;28;19955;-71
2023/02/22 03:37:32;;;;;;;;;;;;;;;;;;5054791;28;19948;-71
2023/02/22 03:39:58;;;;;;;;;;;;;;;;;;5055077;28;19909;-71
2023/02/22 03:42:24;;;;;;;;;;;;;;;;;;5054935;28;20258;-70
2023/02/22 03:44:50;;;;;;;;;;;;;;;;;;5054570;28;19996;-71
2023/02/22 03:47:16;;;;;;;;;;;;;;;;;;5054900;28;20054;-71
2023/02/22 03:49:42;;;;;;;;;;;;;;;;;;5054896;28;19912;-71
2023/02/22 03:52:08;;;;;;;;;;;;;;;;;;5036490;28;20007;-71
2023/02/22 03:54:34;;;;;;;;;;;;;;;;;;5036816;28;20403;-71
2023/02/22 03:57:00;;;;;;;;;;;;;;;;;;5054081;28;20377;-71
2023/02/22 03:59:26;;;;;;;;;;;;;;;;;;5054427;28;20449;-71
2023/02/22 04:01:52;;;;;;;;;;;;;;;;;;5036744;28;19909;-71
2023/02/22 04:04:20;;;;;;;;;;;;;;;;;;5054669;28;20361;-71
2023/02/22 04:06:46;;;;;;;;;;;;;;;;;;5054219;28;19913;-71
2023/02/22 04:09:12;;;;;;;;;;;;;;;;;;5054587;28;19909;-71
2023/02/22 04:11:38;;;;;;;;;;;;;;;;;;5054483;28;20373;-71
2023/02/22 04:14:04;;;;;;;;;;;;;;;;;;5054463;28;19935;-71
2023/02/22 04:16:30;;;;;;;;;;;;;;;;;;5036504;28;19915;-71
2023/02/22 04:18:56;;;;;;;;;;;;;;;;;;5054052;28;19909;-71
2023/02/22 04:21:22;;;;;;;;;;;;;;;;;;5036428;28;20409;-71
2023/02/22 04:23:48;;;;;;;;;;;;;;;;;;5036653;28;20289;-71
2023/02/22 04:26:14;;;;;;;;;;;;;;;;;;5036038;28;19913;-71
2023/02/22 04:28:40;;;;;;;;;;;;;;;;;;5036283;28;19939;-71
2023/02/22 04:31:06;;;;;;;;;;;;;;;;;;5054078;28;19908;-71
2023/02/22 04:33:32;;;;;;;;;;;;;;;;;;5053626;28;19928;-71
2023/02/22 04:35:58;;;;;;;;;;;;;;;;;;5054068;28;20357;-71
2023/02/22 04:38:24;;;;;;;;;;;;;;;;;;5054051;28;19991;-71
2023/02/22 04:40:50;;;;;;;;;;;;;;;;;;5053759;28;19978;-71
2023/02/22 04:43:16;;;;;;;;;;;;;;;;;;5053913;28;19967;-71
2023/02/22 04:45:42;;;;;;;;;;;;;;;;;;5053829;28;19909;-71
2023/02/22 04:48:08;;;;;;;;;;;;;;;;;;5053517;28;19908;-71
2023/02/22 04:50:34;;;;;;;;;;;;;;;;;;5036024;28;19966;-71
2023/02/22 04:53:00;;;;;;;;;;;;;;;;;;5035894;28;20369;-70
2023/02/22 04:55:27;;;;;;;;;;;;;;;;;;5053410;28;19909;-70
2023/02/22 04:57:52;;;;;;;;;;;;;;;;;;5035811;28;19913;-70
2023/02/22 05:00:20;;;;;;;;;;;;;;;;;;5053955;28;19935;-71
2023/02/22 05:02:46;;;;;;;;;;;;;;;;;;5053144;28;19983;-71
2023/02/22 05:05:12;;;;;;;;;;;;;;;;;;5053566;28;20342;-70
2023/02/22 05:07:38;;;;;;;;;;;;;;;;;;5053661;28;20377;-71
2023/02/22 05:10:04;;;;;;;;;;;;;;;;;;5053151;28;20258;-71
2023/02/22 05:12:30;;;;;;;;;;;;;;;;;;5053890;28;19925;-71
2023/02/22 05:14:56;;;;;;;;;;;;;;;;;;5053207;28;19909;-70
2023/02/22 05:17:22;;;;;;;;;;;;;;;;;;5053513;28;19962;-70
2023/02/22 05:19:48;;;;;;;;;;;;;;;;;;5053506;28;19909;-71
2023/02/22 05:22:14;;;;;;;;;;;;;;;;;;5053039;28;20369;-71
2023/02/22 05:24:40;;;;;;;;;;;;;;;;;;5053889;28;19909;-71
2023/02/22 05:27:05;;;;;;;;;;;;;;;;;;5053599;28;20413;-71
2023/02/22 05:29:31;;;;;;;;;;;;;;;;;;5053081;28;20308;-71
2023/02/22 05:31:57;;;;;;;;;;;;;;;;;;5053351;28;20262;-71
2023/02/22 05:34:23;;;;;;;;;;;;;;;;;;5053195;28;19967;-71
2023/02/22 05:36:49;;;;;;;;;;;;;;;;;;5035119;28;19916;-71
2023/02/22 05:39:15;;;;;;;;;;;;;;;;;;5053303;28;19951;-71
2023/02/22 05:41:41;;;;;;;;;;;;;;;;;;5035308;28;19987;-71
2023/02/22 05:44:08;;;;;;;;;;;;;;;;;;5052995;28;19908;-70
2023/02/22 05:46:34;;;;;;;;;;;;;;;;;;5052875;28;20511;-71
2023/02/22 05:49:00;;;;;;;;;;;;;;;;;;5033451;28;19948;-72
2023/02/22 05:51:26;;;;;;;;;;;;;;;;;;5052117;28;19970;-70
2023/02/22 05:53:52;;;;;;;;;;;;;;;;;;5053152;28;19913;-70
2023/02/22 05:56:17;;;;;;;;;;;;;;;;;;5033942;28;19916;-71
2023/02/22 05:58:43;;;;;;;;;;;;;;;;;;5034928;28;19912;-70
2023/02/22 06:01:10;;;;;;;;;;;;;;;;;;5035312;28;20289;-70
2023/02/22 06:03:35;;;;;;;;;;;;;;;;;;5034893;28;19909;-71
2023/02/22 06:06:01;;;;;;;;;;;;;;;;;;5050706;28;19915;-81
2023/02/22 06:08:27;;;;;;;;;;;;;;;;;;5054341;28;19909;-83
2023/02/22 06:10:53;;;;;;;;;;;;;;;;;;5035925;28;20434;-83
2023/02/22 06:13:19;;;;;;;;;;;;;;;;;;5033832;28;20350;-71
2023/02/22 06:15:45;;;;;;;;;;;;;;;;;;5050270;28;19909;-70
2023/02/22 06:18:11;;;;;;;;;;;;;;;;;;5049804;28;19909;-69
2023/02/22 06:20:37;;;;;;;;;;;;;;;;;;5055034;28;19909;-69
2023/02/22 06:23:03;;;;;;;;;;;;;;;;;;5037070;28;20322;-69
2023/02/22 06:25:32;;;;;;;;;;;;;;;;;;5036371;28;19908;-70
2023/02/22 06:27:59;;;;;;;;;;;;;;;;;;5053427;28;19909;-70
2023/02/22 06:30:24;;;;;;;;;;;;;;;;;;5053375;28;20474;-68
2023/02/22 06:32:50;;;;;;;;;;;;;;;;;;5053835;28;19921;-68
2023/02/22 06:35:16;;;;;;;;;;;;;;;;;;5054331;28;20012;-72
2023/02/22 06:37:42;;;;;;;;;;;;;;;;;;5037047;28;19916;-68
2023/02/22 06:40:10;;;;;;;;;;;;;;;;;;5054225;28;19913;-69
2023/02/22 06:42:36;;;;;;;;;;;;;;;;;;5054838;28;19959;-68
2023/02/22 06:45:01;;;;;;;;;;;;;;;;;;5037395;28;19912;-70
2023/02/22 06:47:27;;;;;;;;;;;;;;;;;;5055041;28;19909;-67
2023/02/22 06:49:53;;;;;;;;;;;;;;;;;;5055512;28;19936;-70
2023/02/22 06:52:19;;;;;;;;;;;;;;;;;;5055051;28;20006;-69
2023/02/22 06:54:45;;;;;;;;;;;;;;;;;;5054662;28;20288;-70
2023/02/22 06:57:11;;;;;;;;;;;;;;;;;;5055347;28;19915;-69
2023/02/22 06:59:37;;;;;;;;;;;;;;;;;;5036008;28;19952;-69
2023/02/22 07:02:03;;;;;;;;;;;;;;;;;;5052599;28;19909;-67
2023/02/22 07:04:29;;;;;;;;;;;;;;;;;;5046389;28;20383;-69
2023/02/22 07:06:55;;;;;;;;;;;;;;;;;;5036580;28;20361;-71
2023/02/22 07:09:21;;;;;;;;;;;;;;;;;;5036338;28;20373;-68
2023/02/22 07:11:47;;;;;;;;;;;;;;;;;;5054627;28;20384;-68
2023/02/22 07:14:13;;;;;;;;;;;;;;;;;;5036681;28;19916;-67
2023/02/22 07:16:39;;;;;;;;;;;;;;;;;;5035838;28;19944;-69
2023/02/22 07:19:05;;;;;;;;;;;;;;;;;;5035863;28;19924;-69
2023/02/22 07:21:32;;;;;;;;;;;;;;;;;;5034211;28;19919;-72
2023/02/22 07:24:00;;;;;;;;;;;;;;;;;;5052618;28;20443;-71
2023/02/22 07:26:26;;;;;;;;;;;;;;;;;;5053203;28;19948;-72
2023/02/22 07:28:52;;;;;;;;;;;;;;;;;;5040423;28;19920;-70
2023/02/22 07:31:18;;;;;;;;;;;;;;;;;;5025730;28;19964;-69
2023/02/22 07:33:44;;;;;;;;;;;;;;;;;;5051320;28;19925;-69
2023/02/22 07:36:12;;;;;;;;;;;;;;;;;;5049964;28;19909;-67
2023/02/22 07:38:38;;;;;;;;;;;;;;;;;;5053382;28;20007;-68
2023/02/22 07:41:04;;;;;;;;;;;;;;;;;;5053187;28;19923;-67
2023/02/22 07:43:30;;;;;;;;;;;;;;;;;;5051771;28;19999;-71
2023/02/22 07:45:56;;;;;;;;;;;;;;;;;;5052184;28;19909;-70
2023/02/22 07:48:22;;;;;;;;;;;;;;;;;;5051437;28;19916;-67
2023/02/22 07:50:48;;;;;;;;;;;;;;;;;;5050851;28;20372;-70
2023/02/22 07:53:14;;;;;;;;;;;;;;;;;;5051071;28;20015;-69
2023/02/22 07:55:40;;;;;;;;;;;;;;;;;;5042508;28;19920;-72
2023/02/22 07:58:06;;;;;;;;;;;;;;;;;;5039791;28;19995;-72
2023/02/22 08:00:32;;;;;;;;;;;;;;;;;;5043057;28;19921;-73
2023/02/22 08:02:58;;;;;;;;;;;;;;;;;;5028950;28;19927;-69
2023/02/22 08:05:28;;;;;;;;;;;;;;;;;;5018155;28;20404;-69
2023/02/22 08:07:54;;;;;;;;;;;;;;;;;;5024454;28;20331;-72
2023/02/22 08:10:21;;;;;;;;;;;;;;;;;;5039726;28;19917;-72
2023/02/22 08:12:48;;;;;;;;;;;;;;;;;;5012048;28;20015;-69
2023/02/22 08:15:14;;;;;;;;;;;;;;;;;;5028889;28;19924;-69
2023/02/22 08:17:40;;;;;;;;;;;;;;;;;;5041027;28;19921;-69
2023/02/22 08:20:06;;;;;;;;;;;;;;;;;;5037865;28;19916;-69
2023/02/22 08:22:32;;;;;;;;;;;;;;;;;;5037703;28;19963;-69
2023/02/22 08:24:59;;;;;;;;;;;;;;;;;;5047973;28;19927;-68
2023/02/22 08:27:25;;;;;;;;;;;;;;;;;;5049516;28;20393;-68
2023/02/22 08:29:51;;;;;;;;;;;;;;;;;;5040973;28;19913;-68
2023/02/22 08:32:17;;;;;;;;;;;;;;;;;;5047577;28;19923;-69
2023/02/22 08:34:43;;;;;;;;;;;;;;;;;;5047891;28;19975;-71
2023/02/22 08:37:09;;;;;;;;;;;;;;;;;;5045474;28;19923;-70
2023/02/22 08:39:35;;;;;;;;;;;;;;;;;;5040791;28;19913;-69
2023/02/22 08:42:01;;;;;;;;;;;;;;;;;;5033965;28;19940;-69
2023/02/22 08:44:27;;;;;;;;;;;;;;;;;;5042714;28;19909;-68
2023/02/22 08:46:54;;;;;;;;;;;;;;;;;;5050702;28;19940;-68
2023/02/22 08:49:20;;;;;;;;;;;;;;;;;;5036255;28;19936;-70
2023/02/22 08:51:45;;;;;;;;;;;;;;;;;;5047360;28;19921;-70
2023/02/22 08:54:11;;;;;;;;;;;;;;;;;;5040836;28;20388;-68
2023/02/22 08:56:38;;;;;;;;;;;;;;;;;;5041154;28;19961;-70
2023/02/22 08:59:04;;;;;;;;;;;;;;;;;;5021230;28;19913;-70
2023/02/22 09:01:31;;;;;;;;;;;;;;;;;;5044616;28;19986;-69
2023/02/22 09:03:57;;;;;;;;;;;;;;;;;;5030734;28;19913;-68
2023/02/22 09:06:23;;;;;;;;;;;;;;;;;;5044592;28;19916;-66
2023/02/22 09:08:50;;;;;;;;;;;;;;;;;;5047848;28;19959;-72
2023/02/22 09:12:28;;;;;;;;;;;;;;;;;;5088113;28;19920;-73
2023/02/22 09:14:56;;;;;;;;;;;;;;;;;;5079906;28;19923;-73
2023/02/22 09:17:23;;;;;;;;;;;;;;;;;;5079554;28;19920;-72
2023/02/22 09:22:02;;;;;;;;;;;;;;;;;;5087687;28;19923;-72
2023/02/22 09:24:54;;;;;;;;;;;;;;;;;;5089253;27;19917;-72
2023/02/22 09:27:20;;;;;;;;;;;;;;;;;;5088888;28;20287;-72
2023/02/22 09:31:05;;;;;;;;;;;;;;;;;;5129489;27;19912;-72
2023/02/22 09:33:31;;;;;;;;;;;;;;;;;;5123985;28;20398;-72
2023/02/22 09:35:59;;;;;;;;;;;;;;;;;;5126931;28;20056;-71
2023/02/22 09:38:25;;;;;;;;;;;;;;;;;;5111442;28;19919;-72
2023/02/22 09:40:51;;;;;;;;;;;;;;;;;;5111087;28;19999;-73
2023/02/22 09:43:17;;;;;;;;;;;;;;;;;;5117993;27;22622;-74
2023/02/22 09:45:46;;;;;;;;;;;;;;;;;;5125308;28;19915;-72
2023/02/22 09:50:22;;;;;;;;;;;;;;;;;;5087887;28;19927;-74
2023/02/22 09:52:48;;;;;;;;;;;;;;;;;;5070097;28;19919;-75
2023/02/22 09:55:17;;;;;;;;;;;;;;;;;;5074614;28;19912;-71
2023/02/22 10:00:12;;;;;;;;;;;;;;;;;;5086417;27;19916;-75
2023/02/22 10:02:40;;;;;;;;;;;;;;;;;;5086228;28;19983;-72
2023/02/22 10:05:06;;;;;;;;;;;;;;;;;;5083786;28;19927;-73
2023/02/22 10:07:46;;;;;;;;;;;;;;;;;;5087243;27;19919;-73
2023/02/22 10:11:24;;;;;;;;;;;;;;;;;;5107601;27;19920;-72
2023/02/22 10:14:33;;;;;;;;;;;;;;;;;;5067866;28;19917;-72
2023/02/22 10:19:55;;;;;;;;;;;;;;;;;;5149860;27;19919;-72
2023/02/22 10:22:21;;;;;;;;;;;;;;;;;;5112952;27;20368;-72
2023/02/22 10:24:47;;;;;;;;;;;;;;;;;;5114215;28;19965;-73
2023/02/22 10:27:13;;;;;;;;;;;;;;;;;;5117154;28;20285;-72
2023/02/22 10:31:55;;;;;;;;;;;;;;;;;;5089758;27;19921;-71
2023/02/22 10:34:53;;;;;;;;;;;;;;;;;;5086612;27;19990;-73
2023/02/22 10:37:19;;;;;;;;;;;;;;;;;;5079531;28;19916;-73
2023/02/22 10:41:43;;;;;;;;;;;;;;;;;;5107387;27;20368;-75
2023/02/22 10:44:09;;;;;;;;;;;;;;;;;;5095136;28;19957;-71
2023/02/22 10:48:12;;;;;;;;;;;;;;;;;;5108177;27;19923;-74
2023/02/22 10:50:39;;;;;;;;;;;;;;;;;;5108386;28;19916;-73
2023/02/22 10:56:24;;;;;;;;;;;;;;;;;;5107559;27;19935;-73
2023/02/22 11:00:54;;;;;;;;;;;;;;;;;;5085133;27;19926;-71
2023/02/22 11:03:20;;;;;;;;;;;;;;;;;;5087172;28;19916;-70
2023/02/22 11:05:46;;;;;;;;;;;;;;;;;;5081879;28;19916;-70
2023/02/22 11:08:13;;;;;;;;;;;;;;;;;;5083453;28;20070;-71
2023/02/22 11:13:32;;;;;;;;;;;;;;;;;;5086923;27;19916;-70
2023/02/22 11:19:15;;;;;;;;;;;;;;;;;;5085452;28;20295;-68
2023/02/22 11:22:24;;;;;;;;;;;;;;;;;;5075043;27;19920;-68
2023/02/22 11:24:49;;;;;;;;;;;;;;;;;;5083177;28;19916;-70
2023/02/22 11:27:50;;;;;;;;;;;;;;;;;;5100000;27;19938;-71
2023/02/22 11:30:16;;;;;;;;;;;;;;;;;;5085004;28;20353;-67
2023/02/22 11:33:23;;;;;;;;;;;;;;;;;;5082544;28;19917;-69
2023/02/22 11:35:51;;;;;;;;;;;;;;;;;;5066764;28;19920;-69
2023/02/22 11:38:17;;;;;;;;;;;;;;;;;;5067257;28;19935;-70
2023/02/22 11:40:43;;;;;;;;;;;;;;;;;;5068491;28;19995;-70
2023/02/22 11:45:28;;;;;;;;;;;;;;;;;;5108189;27;19913;-71
2023/02/22 11:47:54;;;;;;;;;;;;;;;;;;5106347;28;20026;-72
2023/02/22 11:50:21;;;;;;;;;;;;;;;;;;5089694;28;20019;-71
2023/02/22 11:52:46;;;;;;;;;;;;;;;;;;5101395;28;19908;-70
2023/02/22 11:55:29;;;;;;;;;;;;;;;;;;5080432;27;19920;-68
2023/02/22 11:59:54;;;;;;;;;;;;;;;;;;5065616;27;19931;-70
2023/02/22 12:02:20;;;;;;;;;;;;;;;;;;5050644;28;19913;-70
2023/02/22 12:06:00;;;;;;;;;;;;;;;;;;5103512;27;19916;-70
2023/02/22 12:08:27;;;;;;;;;;;;;;;;;;5102416;28;19927;-71
2023/02/22 12:10:54;;;;;;;;;;;;;;;;;;5078153;28;19908;-71
2023/02/22 12:13:20;;;;;;;;;;;;;;;;;;5106943;28;19930;-72
2023/02/22 12:15:46;;;;;;;;;;;;;;;;;;5091535;28;20368;-72
2023/02/22 12:18:53;;;;;;;;;;;;;;;;;;5108107;27;20376;-74
2023/02/22 12:22:20;;;;;;;;;;;;;;;;;;5087988;27;19922;-73
2023/02/22 12:24:46;;;;;;;;;;;;;;;;;;5085937;28;20300;-73
2023/02/22 12:27:12;;;;;;;;;;;;;;;;;;5083705;28;19912;-74
2023/02/22 12:29:37;;;;;;;;;;;;;;;;;;5068235;28;20337;-70
2023/02/22 12:34:26;;;;;;;;;;;;;;;;;;5101685;27;19916;-70
2023/02/22 12:36:51;;;;;;;;;;;;;;;;;;5105629;28;19995;-70
2023/02/22 12:39:51;;;;;;;;;;;;;;;;;;5089360;27;19912;-72
2023/02/22 12:42:17;;;;;;;;;;;;;;;;;;5087598;28;19923;-69
2023/02/22 12:44:43;;;;;;;;;;;;;;;;;;5083188;28;19909;-69
2023/02/22 12:47:09;;;;;;;;;;;;;;;;;;5070111;28;20007;-75
2023/02/22 12:49:35;;;;;;;;;;;;;;;;;;5070254;28;20400;-70
2023/02/22 12:52:01;;;;;;;;;;;;;;;;;;5067675;28;19909;-73
2023/02/22 12:54:27;;;;;;;;;;;;;;;;;;5066824;28;19913;-72
2023/02/22 12:56:53;;;;;;;;;;;;;;;;;;5070830;28;19908;-71
2023/02/22 12:59:18;;;;;;;;;;;;;;;;;;5086543;28;19962;-72
2023/02/22 13:01:44;;;;;;;;;;;;;;;;;;5088283;28;19930;-71
2023/02/22 13:04:10;;;;;;;;;;;;;;;;;;5087715;28;19932;-72
2023/02/22 13:06:36;;;;;;;;;;;;;;;;;;5072469;28;20428;-69
2023/02/22 13:09:04;;;;;;;;;;;;;;;;;;5069464;28;19913;-71
2023/02/22 13:11:30;;;;;;;;;;;;;;;;;;5069567;28;19950;-73
2023/02/22 13:13:56;;;;;;;;;;;;;;;;;;5061106;28;19913;-72
2023/02/22 13:16:22;;;;;;;;;;;;;;;;;;5067908;28;20335;-72
2023/02/22 13:18:48;;;;;;;;;;;;;;;;;;5068174;28;19924;-71
2023/02/22 13:21:14;;;;;;;;;;;;;;;;;;5066891;28;19912;-73
2023/02/22 13:23:40;;;;;;;;;;;;;;;;;;5068162;28;19986;-73
2023/02/22 13:26:06;;;;;;;;;;;;;;;;;;5073692;28;19947;-73
2023/02/22 13:28:32;;;;;;;;;;;;;;;;;;5066840;28;19920;-71
2023/02/22 13:30:58;;;;;;;;;;;;;;;;;;5074819;28;19908;-71
2023/02/22 13:33:24;;;;;;;;;;;;;;;;;;5076591;28;19918;-70
2023/02/22 13:35:50;;;;;;;;;;;;;;;;;;5069019;28;19948;-73
2023/02/22 13:38:16;;;;;;;;;;;;;;;;;;5081657;28;19962;-72
2023/02/22 13:40:43;;;;;;;;;;;;;;;;;;5101778;28;19908;-68
2023/02/22 13:43:10;;;;;;;;;;;;;;;;;;5075391;28;20292;-67
2023/02/22 13:45:36;;;;;;;;;;;;;;;;;;5071069;28;19938;-67
2023/02/22 13:48:02;;;;;;;;;;;;;;;;;;5089134;28;19912;-69
2023/02/22 13:50:28;;;;;;;;;;;;;;;;;;5078291;28;19915;-69
2023/02/22 13:52:54;;;;;;;;;;;;;;;;;;5057296;28;19913;-67
2023/02/22 13:55:20;;;;;;;;;;;;;;;;;;5075005;28;19915;-68
2023/02/22 13:57:48;;;;;;;;;;;;;;;;;;5075178;28;19912;-69
2023/02/22 14:00:14;;;;;;;;;;;;;;;;;;5073471;28;19912;-72
2023/02/22 14:02:40;;;;;;;;;;;;;;;;;;5056631;28;19908;-71
2023/02/22 14:05:06;;;;;;;;;;;;;;;;;;5076197;28;20416;-71
2023/02/22 14:07:33;;;;;;;;;;;;;;;;;;5076026;28;20272;-71
2023/02/22 14:10:00;;;;;;;;;;;;;;;;;;5075669;28;20379;-71
2023/02/22 14:12:26;;;;;;;;;;;;;;;;;;5075956;28;19912;-71
2023/02/22 14:14:52;;;;;;;;;;;;;;;;;;5076019;28;19908;-71
2023/02/22 14:17:19;;;;;;;;;;;;;;;;;;5073462;28;19915;-71
2023/02/22 14:19:45;;;;;;;;;;;;;;;;;;5073957;28;20007;-71
2023/02/22 14:22:12;;;;;;;;;;;;;;;;;;5074121;28;19908;-71
2023/02/22 14:24:38;;;;;;;;;;;;;;;;;;5073484;28;20053;-71
2023/02/22 14:27:04;;;;;;;;;;;;;;;;;;5074020;28;19999;-71
2023/02/22 14:29:30;;;;;;;;;;;;;;;;;;5055922;28;19915;-71
2023/02/22 14:31:56;;;;;;;;;;;;;;;;;;5056614;28;19909;-71
2023/02/22 14:34:22;;;;;;;;;;;;;;;;;;5075742;28;19909;-71
2023/02/22 14:36:51;;;;;;;;;;;;;;;;;;5075887;28;19915;-72
2023/02/22 14:39:17;;;;;;;;;;;;;;;;;;5057269;28;20289;-71
2023/02/22 14:41:43;;;;;;;;;;;;;;;;;;5075565;28;19908;-71
2023/02/22 14:44:11;;;;;;;;;;;;;;;;;;5075869;28;20426;-71
2023/02/22 14:46:39;;;;;;;;;;;;;;;;;;5075007;28;20003;-71
2023/02/22 14:49:08;;;;;;;;;;;;;;;;;;5075370;28;19909;-71
2023/02/22 14:51:34;;;;;;;;;;;;;;;;;;5075081;28;19912;-71
2023/02/22 14:54:00;;;;;;;;;;;;;;;;;;5075115;28;19909;-71
2023/02/22 14:56:27;;;;;;;;;;;;;;;;;;5057349;28;20007;-71
2023/02/22 14:58:54;;;;;;;;;;;;;;;;;;5074743;28;19917;-71
2023/02/22 15:01:20;;;;;;;;;;;;;;;;;;5074135;28;19908;-71
2023/02/22 15:03:45;;;;;;;;;;;;;;;;;;5075814;28;19915;-71
2023/02/22 15:06:13;;;;;;;;;;;;;;;;;;5074930;28;19908;-71
2023/02/22 15:08:40;;;;;;;;;;;;;;;;;;5075137;28;19916;-71
2023/02/22 15:11:06;;;;;;;;;;;;;;;;;;5074999;28;19931;-71
2023/02/22 15:13:32;;;;;;;;;;;;;;;;;;5074565;28;20381;-71
2023/02/22 15:15:58;;;;;;;;;;;;;;;;;;5074937;28;20440;-70
2023/02/22 15:18:25;;;;;;;;;;;;;;;;;;5074778;28;20023;-70
2023/02/22 15:20:54;;;;;;;;;;;;;;;;;;5074583;28;19934;-71
2023/02/22 15:23:20;;;;;;;;;;;;;;;;;;5056730;28;19908;-70
2023/02/22 15:25:47;;;;;;;;;;;;;;;;;;5074703;28;19913;-71
2023/02/22 15:28:13;;;;;;;;;;;;;;;;;;5074377;28;19925;-70
2023/02/22 15:30:40;;;;;;;;;;;;;;;;;;5056925;28;19935;-71
2023/02/22 15:33:06;;;;;;;;;;;;;;;;;;5074620;28;19908;-71
2023/02/22 15:35:32;;;;;;;;;;;;;;;;;;5056429;28;19908;-70
2023/02/22 15:37:58;;;;;;;;;;;;;;;;;;5074606;28;19921;-71
2023/02/22 15:40:31;;;;;;;;;;;;;;;;;;5056470;28;19916;-71
2023/02/22 15:42:57;;;;;;;;;;;;;;;;;;5074345;28;19912;-70
2023/02/22 15:45:23;;;;;;;;;;;;;;;;;;5074205;28;20343;-70
2023/02/22 15:47:49;;;;;;;;;;;;;;;;;;5073666;28;19909;-70
2023/02/22 15:50:15;;;;;;;;;;;;;;;;;;5074313;28;19932;-70
2023/02/22 15:52:41;;;;;;;;;;;;;;;;;;5074318;28;19912;-70
2023/02/22 15:55:07;;;;;;;;;;;;;;;;;;5074006;28;19916;-71
2023/02/22 15:57:33;;;;;;;;;;;;;;;;;;5056333;28;19913;-71
2023/02/22 15:59:59;;;;;;;;;;;;;;;;;;5073830;28;19908;-72
2023/02/22 16:02:28;;;;;;;;;;;;;;;;;;5055743;28;19935;-71
2023/02/22 16:04:54;;;;;;;;;;;;;;;;;;5073909;28;19915;-71
2023/02/22 16:08:22;;;;;;;;;;;;;;;;;;5111850;27;20377;-69
2023/02/22 16:10:48;;;;;;;;;;;;;;;;;;5109909;28;19916;-69
2023/02/22 16:15:00;;;;;;;;;;;;;;;;;;5091354;27;19923;-69
2023/02/22 16:17:29;;;;;;;;;;;;;;;;;;5089517;28;20007;-72
2023/02/22 16:19:55;;;;;;;;;;;;;;;;;;5091114;28;19908;-71
2023/02/22 16:22:21;;;;;;;;;;;;;;;;;;5089819;28;19908;-70
2023/02/22 16:24:51;;;;;;;;;;;;;;;;;;5090738;28;19912;-70
2023/02/22 16:29:37;;;;;;;;;;;;;;;;;;5091384;27;20365;-71
2023/02/22 16:32:03;;;;;;;;;;;;;;;;;;5090896;28;20011;-72
2023/02/22 16:34:29;;;;;;;;;;;;;;;;;;5089867;28;20011;-69
2023/02/22 16:38:22;;;;;;;;;;;;;;;;;;5071010;28;19923;-71
2023/02/22 16:40:57;;;;;;;;;;;;;;;;;;5091869;27;19923;-69
2023/02/22 16:43:23;;;;;;;;;;;;;;;;;;5091334;28;19917;-71
2023/02/22 16:46:24;;;;;;;;;;;;;;;;;;5091233;27;19916;-71
2023/02/22 16:53:13;;;;;;;;;;;;;;;;;;5069920;28;20174;-71
2023/02/22 16:55:39;;;;;;;;;;;;;;;;;;5068991;28;19913;-71
2023/02/22 16:58:05;;;;;;;;;;;;;;;;;;5069097;28;20416;-71
2023/02/22 17:01:53;;;;;;;;;;;;;;;;;;5090341;28;19913;-70
2023/02/22 17:05:06;;;;;;;;;;;;;;;;;;5090697;27;20272;-71
2023/02/22 17:07:32;;;;;;;;;;;;;;;;;;5088409;28;19916;-71
2023/02/22 17:12:25;;;;;;;;;;;;;;;;;;5090482;28;19912;-71
2023/02/22 17:14:51;;;;;;;;;;;;;;;;;;5091021;28;20042;-71
2023/02/22 17:17:17;;;;;;;;;;;;;;;;;;5090897;28;19908;-71
2023/02/22 17:19:43;;;;;;;;;;;;;;;;;;5090687;28;19960;-71
2023/02/22 17:22:09;;;;;;;;;;;;;;;;;;5090929;28;20261;-71
2023/02/22 17:26:46;;;;;;;;;;;;;;;;;;5111284;27;19916;-70
2023/02/22 17:29:14;;;;;;;;;;;;;;;;;;5111156;28;19948;-71
2023/02/22 17:35:56;;;;;;;;;;;;;;;;;;5091307;27;19916;-69
2023/02/22 17:38:22;;;;;;;;;;;;;;;;;;5091270;28;19922;-70
2023/02/22 17:40:50;;;;;;;;;;;;;;;;;;5089708;28;19978;-70
2023/02/22 17:43:16;;;;;;;;;;;;;;;;;;5090893;28;19931;-70
2023/02/22 17:45:42;;;;;;;;;;;;;;;;;;5089701;28;20377;-69
2023/02/22 17:48:08;;;;;;;;;;;;;;;;;;5090593;28;19908;-69
2023/02/22 17:50:34;;;;;;;;;;;;;;;;;;5090972;28;19961;-69
2023/02/22 17:53:00;;;;;;;;;;;;;;;;;;5090402;28;19908;-69
2023/02/22 17:56:23;;;;;;;;;;;;;;;;;;5111272;27;19918;-71
2023/02/22 17:58:49;;;;;;;;;;;;;;;;;;5111270;28;20376;-71
2023/02/22 18:01:15;;;;;;;;;;;;;;;;;;5109436;28;19915;-71
2023/02/22 18:03:41;;;;;;;;;;;;;;;;;;5110551;28;19998;-72
2023/02/22 18:06:07;;;;;;;;;;;;;;;;;;5109890;28;19915;-71
2023/02/22 18:08:33;;;;;;;;;;;;;;;;;;5110517;28;20375;-69
2023/02/22 18:11:01;;;;;;;;;;;;;;;;;;5111006;28;20364;-69
2023/02/22 18:13:27;;;;;;;;;;;;;;;;;;5110958;28;20296;-70
2023/02/22 18:15:53;;;;;;;;;;;;;;;;;;5109036;28;19920;-70
2023/02/22 18:18:20;;;;;;;;;;;;;;;;;;5110741;28;19915;-69
2023/02/22 18:20:50;;;;;;;;;;;;;;;;;;5110834;28;19962;-71
2023/02/22 18:23:16;;;;;;;;;;;;;;;;;;5110463;28;20376;-71
2023/02/22 18:25:46;;;;;;;;;;;;;;;;;;5110761;28;19916;-71
2023/02/22 18:28:12;;;;;;;;;;;;;;;;;;5110683;28;19916;-70
2023/02/22 18:30:39;;;;;;;;;;;;;;;;;;5110132;28;19908;-70
2023/02/22 18:33:09;;;;;;;;;;;;;;;;;;5110025;28;19977;-70
2023/02/22 18:35:35;;;;;;;;;;;;;;;;;;5110564;28;19916;-69
2023/02/22 18:38:01;;;;;;;;;;;;;;;;;;5110296;28;20368;-69
2023/02/22 18:40:27;;;;;;;;;;;;;;;;;;5110463;28;19912;-69
2023/02/22 18:42:53;;;;;;;;;;;;;;;;;;5109734;28;19911;-69
2023/02/22 18:45:21;;;;;;;;;;;;;;;;;;5110174;28;19912;-69
2023/02/22 18:47:47;;;;;;;;;;;;;;;;;;5110776;28;19970;-68